createdAt,value
2023-02-01T00:00:00.129Z,12.02
2023-02-01T00:02:27.185Z,12.50
2023-02-01T00:04:54.039Z,13.80
2023-02-01T00:07:20.899Z,13.02
2023-02-01T00:09:47.761Z,13.63
2023-02-01T00:12:14.727Z,11.90
2023-02-01T00:14:41.590Z,14.50
2023-02-01T00:17:08.704Z,17.10
2023-02-01T00:19:35.762Z,11.95
2023-02-01T00:22:02.701Z,13.75
2023-02-01T00:24:29.660Z,14.30
2023-02-01T00:26:56.964Z,15.98
2023-02-01T00:29:23.999Z,19.90
2023-02-01T00:31:52.767Z,17.90
2023-02-01T00:34:21.220Z,13.02
2023-02-01T00:36:48.197Z,12.65
2023-02-01T00:39:15.717Z,12.85
2023-02-01T00:41:44.194Z,14.38
2023-02-01T00:44:11.062Z,16.80
2023-02-01T00:46:38.309Z,14.93
2023-02-01T00:49:05.375Z,15.32
2023-02-01T00:51:32.445Z,15.65
2023-02-01T00:53:59.393Z,15.82
2023-02-01T00:56:28.513Z,13.48
2023-02-01T00:58:55.896Z,13.52
2023-02-01T01:01:29.436Z,14.93
2023-02-01T01:03:59.252Z,18.50
2023-02-01T01:06:29.347Z,15.52
2023-02-01T01:08:58.151Z,17.30
2023-02-01T01:11:27.953Z,15.38
2023-02-01T01:13:56.905Z,12.68
2023-02-01T01:16:25.952Z,13.93
2023-02-01T01:18:53.391Z,18.00
2023-02-01T01:21:20.611Z,18.30
2023-02-01T01:23:47.990Z,14.85
2023-02-01T01:26:17.692Z,15.32
2023-02-01T01:28:44.669Z,12.82
2023-02-01T01:31:13.303Z,14.15
2023-02-01T01:33:40.245Z,15.18
2023-02-01T01:36:12.330Z,17.30
2023-02-01T01:38:43.748Z,13.90
2023-02-01T01:41:25.327Z,17.67
2023-02-01T01:44:01.307Z,15.10
2023-02-01T01:46:30.159Z,40.85
2023-02-01T01:49:08.697Z,16.30
2023-02-01T01:51:41.035Z,15.75
2023-02-01T01:54:25.011Z,15.57
2023-02-01T01:56:58.236Z,18.50
2023-02-01T01:59:25.758Z,17.60
2023-02-01T02:01:53.393Z,15.48
2023-02-01T02:04:21.017Z,16.23
2023-02-01T02:06:56.572Z,13.90
2023-02-01T02:09:23.733Z,17.60
2023-02-01T02:11:50.603Z,17.20
2023-02-01T02:14:20.876Z,15.98
2023-02-01T02:16:58.373Z,59.47
2023-02-01T02:19:52.998Z,16.08
2023-02-01T02:22:36.832Z,18.70
2023-02-01T02:25:21.885Z,16.33
2023-02-01T02:28:04.239Z,15.85
2023-02-01T02:30:38.328Z,16.33
2023-02-01T02:33:05.269Z,15.55
2023-02-01T02:35:43.438Z,17.98
2023-02-01T02:38:32.778Z,15.75
2023-02-01T02:41:44.359Z,14.65
2023-02-01T02:44:41.599Z,16.33
2023-02-01T02:47:34.631Z,15.43
2023-02-01T02:50:39.321Z,19.13
2023-02-01T02:53:43.731Z,17.45
2023-02-01T02:56:30.170Z,16.40
2023-02-01T02:59:17.835Z,18.70
2023-02-01T03:02:03.552Z,15.90
2023-02-01T03:04:30.660Z,13.55
2023-02-01T03:06:58.509Z,15.48
2023-02-01T03:09:34.616Z,25.40
2023-02-01T03:12:27.406Z,15.68
2023-02-01T03:28:03.461Z,21.05
2023-02-01T03:30:44.242Z,53.13
2023-02-01T03:33:22.951Z,24.83
2023-02-01T03:35:56.426Z,19.20
2023-02-01T03:38:23.338Z,18.70
2023-02-01T03:41:13.308Z,16.70
2023-02-01T03:43:56.901Z,15.90
2023-02-01T03:46:38.529Z,16.90
2023-02-01T03:49:10.666Z,94.90
2023-02-01T03:51:41.973Z,21.77
2023-02-01T03:54:15.810Z,18.88
2023-02-01T03:56:45.835Z,18.13
2023-02-01T03:59:13.628Z,18.60
2023-02-01T04:01:41.780Z,19.95
2023-02-01T04:04:10.404Z,19.88
2023-02-01T04:06:38.533Z,19.40
2023-02-01T04:09:05.962Z,18.08
2023-02-01T04:11:32.811Z,19.67
2023-02-01T04:13:59.718Z,19.13
2023-02-01T04:16:26.619Z,25.73
2023-02-01T04:21:19.258Z,22.02
2023-02-01T04:23:46.077Z,19.80
2023-02-01T04:26:12.922Z,19.67
2023-02-01T04:28:39.818Z,19.23
2023-02-01T04:31:06.753Z,23.20
2023-02-01T04:33:33.745Z,22.10
2023-02-01T04:36:00.632Z,21.33
2023-02-01T04:38:30.468Z,20.80
2023-02-01T04:40:57.420Z,34.88
2023-02-01T04:43:24.349Z,23.45
2023-02-01T04:45:52.126Z,16.80
2023-02-01T04:48:19.922Z,21.00
2023-02-01T04:50:48.563Z,21.23
2023-02-01T04:53:16.452Z,18.58
2023-02-01T04:55:44.660Z,17.98
2023-02-01T04:58:12.207Z,20.63
2023-02-01T05:00:39.052Z,17.00
2023-02-01T05:03:06.147Z,18.17
2023-02-01T05:05:33.135Z,19.67
2023-02-01T05:08:00.166Z,24.27
2023-02-01T05:10:26.979Z,23.95
2023-02-01T05:13:12.580Z,25.10
2023-02-01T05:15:39.534Z,24.40
2023-02-01T05:18:06.396Z,25.98
2023-02-01T05:20:33.273Z,23.90
2023-02-01T05:23:00.201Z,22.75
2023-02-01T05:25:27.084Z,26.23
2023-02-01T05:27:54.749Z,23.33
2023-02-01T05:30:22.335Z,30.15
2023-02-01T05:32:53.818Z,22.25
2023-02-01T05:35:20.974Z,24.70
2023-02-01T05:37:47.918Z,24.38
2023-02-01T05:40:15.836Z,24.58
2023-02-01T05:42:42.880Z,23.02
2023-02-01T05:45:10.473Z,24.10
2023-02-01T05:47:37.468Z,22.83
2023-02-01T05:50:05.648Z,28.88
2023-02-01T05:52:32.557Z,23.45
2023-02-01T05:54:59.411Z,23.80
2023-02-01T05:57:26.304Z,20.58
2023-02-01T05:59:53.117Z,23.17
2023-02-01T06:02:20.145Z,25.35
2023-02-01T06:04:47.000Z,21.75
2023-02-01T06:07:14.056Z,17.48
2023-02-01T06:09:40.873Z,16.92
2023-02-01T06:12:08.005Z,20.65
2023-02-01T06:14:34.883Z,20.92
2023-02-01T06:17:02.034Z,20.38
2023-02-01T06:19:28.863Z,16.73
2023-02-01T06:21:55.817Z,17.85
2023-02-01T06:24:22.579Z,14.27
2023-02-01T06:26:49.469Z,15.70
2023-02-01T06:29:16.363Z,16.70
2023-02-01T06:31:43.918Z,16.67
2023-02-01T06:34:10.867Z,16.10
2023-02-01T06:36:37.753Z,13.73
2023-02-01T06:39:04.798Z,16.52
2023-02-01T06:41:31.754Z,17.55
2023-02-01T06:43:58.766Z,22.00
2023-02-01T06:46:25.689Z,20.38
2023-02-01T06:48:52.597Z,16.65
2023-02-01T06:51:26.134Z,25.75
2023-02-01T06:53:53.352Z,25.73
2023-02-01T06:56:20.676Z,21.83
2023-02-01T06:58:47.719Z,21.33
2023-02-01T07:01:15.464Z,19.33
2023-02-01T07:03:42.403Z,21.98
2023-02-01T07:06:10.559Z,18.40
2023-02-01T07:08:38.848Z,20.80
2023-02-01T07:11:08.190Z,17.58
2023-02-01T07:13:36.158Z,51.40
2023-02-01T07:16:05.514Z,27.33
2023-02-01T07:18:33.576Z,20.67
2023-02-01T07:21:01.256Z,16.80
2023-02-01T07:23:28.930Z,14.23
2023-02-01T07:25:58.139Z,15.20
2023-02-01T07:28:25.873Z,22.88
2023-02-01T07:30:53.076Z,11.90
2023-02-01T07:33:27.931Z,15.10
2023-02-01T07:35:55.238Z,14.25
2023-02-01T07:38:24.699Z,13.43
2023-02-01T07:40:51.499Z,16.48
2023-02-01T07:43:18.381Z,14.23
2023-02-01T07:45:53.319Z,14.55
2023-02-01T07:48:21.273Z,15.02
2023-02-01T07:50:48.498Z,18.10
2023-02-01T07:53:15.663Z,19.23
2023-02-01T07:55:42.533Z,16.58
2023-02-01T07:58:09.474Z,17.15
2023-02-01T08:00:54.867Z,19.52
2023-02-01T08:03:21.839Z,19.25
2023-02-01T08:05:48.799Z,20.55
2023-02-01T08:08:17.670Z,19.65
2023-02-01T08:10:44.553Z,20.55
2023-02-01T08:13:11.419Z,23.75
2023-02-01T08:15:38.276Z,21.33
2023-02-01T08:18:05.665Z,20.45
2023-02-01T08:20:32.784Z,19.90
2023-02-01T08:22:59.651Z,24.30
2023-02-01T08:25:26.584Z,20.25
2023-02-01T08:27:54.490Z,19.65
2023-02-01T08:30:23.059Z,20.40
2023-02-01T08:32:50.091Z,20.67
2023-02-01T08:35:17.053Z,21.83
2023-02-01T08:37:43.865Z,19.75
2023-02-01T08:40:11.563Z,21.13
2023-02-01T08:42:56.751Z,19.83
2023-02-01T08:45:33.184Z,26.15
2023-02-01T08:48:00.135Z,18.83
2023-02-01T08:50:27.631Z,18.50
2023-02-01T08:52:55.159Z,18.13
2023-02-01T08:55:22.182Z,19.83
2023-02-01T08:57:49.206Z,19.15
2023-02-01T09:00:18.395Z,17.13
2023-02-01T09:02:45.937Z,19.42
2023-02-01T09:05:13.116Z,23.95
2023-02-01T09:07:40.055Z,21.70
2023-02-01T09:10:07.778Z,21.27
2023-02-01T09:12:36.659Z,19.35
2023-02-01T09:15:04.286Z,19.92
2023-02-01T09:17:31.323Z,19.00
2023-02-01T09:19:58.315Z,21.00
2023-02-01T09:22:25.444Z,23.13
2023-02-01T09:24:55.106Z,22.35
2023-02-01T09:27:22.568Z,19.10
2023-02-01T09:29:53.852Z,21.80
2023-02-01T09:32:23.271Z,19.50
2023-02-01T09:34:54.012Z,19.67
2023-02-01T09:37:21.406Z,18.23
2023-02-01T09:39:48.741Z,18.63
2023-02-01T09:42:34.181Z,18.55
2023-02-01T09:45:07.083Z,20.83
2023-02-01T09:47:35.614Z,19.33
2023-02-01T09:50:15.707Z,19.00
2023-02-01T09:52:55.117Z,18.08
2023-02-01T09:55:34.174Z,18.92
2023-02-01T09:58:07.200Z,18.10
2023-02-01T10:00:40.001Z,17.80
2023-02-01T10:03:14.122Z,18.92
2023-02-01T10:05:59.488Z,16.80
2023-02-01T10:08:49.800Z,16.88
2023-02-01T10:11:30.338Z,17.73
2023-02-01T10:14:16.854Z,16.98
2023-02-01T10:17:04.973Z,19.92
2023-02-01T10:20:18.752Z,20.50
2023-02-01T10:23:13.790Z,19.63
2023-02-01T10:25:50.152Z,18.65
2023-02-01T10:28:19.051Z,17.02
2023-02-01T10:30:48.786Z,19.90
2023-02-01T10:33:17.921Z,18.02
2023-02-01T10:35:46.883Z,18.58
2023-02-01T10:38:33.089Z,17.73
2023-02-01T10:41:16.224Z,17.67
2023-02-01T10:43:45.943Z,18.00
2023-02-01T10:46:13.185Z,19.58
2023-02-01T10:48:42.021Z,20.20
2023-02-01T10:51:38.130Z,17.30
2023-02-01T10:54:15.591Z,19.13
2023-02-01T10:56:48.507Z,18.50
2023-02-01T10:59:25.975Z,17.58
2023-02-01T11:02:01.600Z,18.75
2023-02-01T11:04:35.260Z,19.15
2023-02-01T11:07:29.852Z,17.63
2023-02-01T11:09:57.536Z,21.05
2023-02-01T11:12:35.001Z,17.65
2023-02-01T11:15:25.758Z,19.50
2023-02-01T11:17:55.917Z,18.73
2023-02-01T11:20:41.131Z,18.48
2023-02-01T11:23:16.815Z,18.83
2023-02-01T11:26:01.269Z,18.27
2023-02-01T11:28:33.355Z,17.98
2023-02-01T11:31:08.167Z,17.23
2023-02-01T11:33:38.176Z,17.88
2023-02-01T11:36:13.416Z,17.13
2023-02-01T11:38:40.530Z,19.48
2023-02-01T11:41:29.083Z,21.08
2023-02-01T11:44:01.839Z,18.70
2023-02-01T11:46:34.696Z,18.90
2023-02-01T11:49:22.365Z,17.27
2023-02-01T11:52:13.395Z,15.32
2023-02-01T11:54:49.686Z,15.65
2023-02-01T11:57:25.475Z,16.80
2023-02-01T12:00:18.446Z,17.08
2023-02-01T12:02:59.176Z,16.95
2023-02-01T12:05:39.546Z,15.18
2023-02-01T12:08:46.853Z,19.40
2023-02-01T12:11:16.397Z,16.35
2023-02-01T12:13:48.919Z,16.77
2023-02-01T12:16:40.643Z,16.40
2023-02-01T12:19:07.461Z,17.15
2023-02-01T12:22:09.940Z,18.23
2023-02-01T12:25:01.724Z,16.17
2023-02-01T12:28:12.897Z,17.25
2023-02-01T12:31:06.242Z,16.63
2023-02-01T12:33:42.366Z,14.90
2023-02-01T12:36:22.467Z,17.38
2023-02-01T12:38:58.193Z,17.23
2023-02-01T12:41:43.457Z,15.70
2023-02-01T12:44:47.704Z,16.77
2023-02-01T12:47:45.841Z,15.80
2023-02-01T12:50:26.776Z,14.77
2023-02-01T12:52:56.097Z,16.17
2023-02-01T12:55:37.935Z,17.08
2023-02-01T12:58:21.691Z,14.63
2023-02-01T13:00:58.754Z,14.40
2023-02-01T13:03:44.181Z,15.95
2023-02-01T13:06:16.983Z,15.68
2023-02-01T13:08:53.661Z,15.88
2023-02-01T13:11:29.766Z,15.63
2023-02-01T13:14:26.477Z,17.00
2023-02-01T13:17:00.795Z,15.60
2023-02-01T13:22:16.366Z,17.02
2023-02-01T13:24:48.354Z,15.50
2023-02-01T13:27:17.426Z,16.00
2023-02-01T13:30:25.303Z,16.65
2023-02-01T13:33:54.215Z,16.10
2023-02-01T13:36:36.972Z,15.82
2023-02-01T13:39:11.231Z,19.15
2023-02-01T13:42:06.449Z,16.25
2023-02-01T13:44:39.539Z,15.93
2023-02-01T13:47:22.810Z,15.75
2023-02-01T13:49:50.233Z,15.52
2023-02-01T13:52:29.660Z,15.02
2023-02-01T13:55:26.294Z,15.52
2023-02-01T13:58:02.647Z,13.82
2023-02-01T14:00:37.848Z,14.77
2023-02-01T14:03:07.515Z,14.73
2023-02-01T14:05:54.263Z,15.95
2023-02-01T14:08:43.013Z,15.85
2023-02-01T14:11:35.925Z,14.70
2023-02-01T14:14:17.971Z,14.45
2023-02-01T14:17:05.587Z,15.57
2023-02-01T14:19:34.520Z,15.35
2023-02-01T14:22:22.454Z,14.80
2023-02-01T14:24:55.853Z,14.20
2023-02-01T14:27:29.615Z,16.52
2023-02-01T14:30:02.636Z,15.70
2023-02-01T14:32:42.059Z,14.95
2023-02-01T14:35:28.392Z,16.42
2023-02-01T14:38:03.655Z,15.00
2023-02-01T14:40:32.083Z,13.00
2023-02-01T14:42:58.997Z,15.25
2023-02-01T14:45:29.514Z,16.58
2023-02-01T14:48:08.641Z,17.90
2023-02-01T14:50:38.501Z,15.18
2023-02-01T14:53:44.025Z,15.82
2023-02-01T14:58:58.276Z,14.77
2023-02-01T15:01:32.819Z,16.65
2023-02-01T15:04:11.848Z,18.10
2023-02-01T15:06:40.680Z,14.20
2023-02-01T15:09:16.912Z,15.63
2023-02-01T15:12:18.646Z,15.52
2023-02-01T15:14:50.238Z,19.05
2023-02-01T15:29:37.575Z,18.80
2023-02-01T15:32:05.972Z,17.15
2023-02-01T15:34:50.672Z,18.38
2023-02-01T15:37:19.567Z,18.33
2023-02-01T15:40:23.176Z,16.95
2023-02-01T15:42:54.159Z,17.85
2023-02-01T15:45:24.055Z,21.70
2023-02-01T15:47:54.122Z,23.13
2023-02-01T15:50:23.325Z,16.55
2023-02-01T15:52:58.853Z,17.77
2023-02-01T15:55:35.010Z,20.02
2023-02-01T15:58:05.940Z,17.08
2023-02-01T16:00:43.446Z,15.60
2023-02-01T16:03:25.585Z,15.80
2023-02-01T16:05:58.434Z,16.70
2023-02-01T16:08:28.090Z,18.40
2023-02-01T16:11:03.091Z,16.85
2023-02-01T16:13:29.998Z,17.20
2023-02-01T16:15:57.012Z,27.60
2023-02-01T16:18:23.985Z,22.70
2023-02-01T16:20:50.920Z,19.75
2023-02-01T16:23:17.869Z,37.03
2023-02-01T16:25:44.724Z,27.17
2023-02-01T16:28:11.589Z,19.77
2023-02-01T16:30:38.827Z,27.45
2023-02-01T16:33:12.110Z,30.52
2023-02-01T16:35:39.218Z,23.85
2023-02-01T16:38:13.805Z,25.00
2023-02-01T16:40:42.571Z,27.65
2023-02-01T16:43:14.295Z,19.48
2023-02-01T16:45:41.620Z,28.73
2023-02-01T16:48:08.535Z,29.30
2023-02-01T16:50:35.414Z,24.85
2023-02-01T16:53:02.585Z,27.85
2023-02-01T16:55:30.333Z,24.10
2023-02-01T16:57:57.165Z,23.88
2023-02-01T17:00:26.278Z,23.25
2023-02-01T17:02:54.395Z,23.67
2023-02-01T17:05:21.852Z,27.80
2023-02-01T17:07:49.130Z,25.58
2023-02-01T17:10:34.506Z,31.70
2023-02-01T17:13:03.117Z,38.38
2023-02-01T17:15:35.624Z,36.85
2023-02-01T17:18:03.324Z,32.38
2023-02-01T17:20:35.380Z,38.80
2023-02-01T17:23:02.857Z,33.97
2023-02-01T17:25:31.252Z,38.72
2023-02-01T17:27:58.153Z,29.00
2023-02-01T17:30:25.019Z,37.65
2023-02-01T17:32:51.956Z,39.20
2023-02-01T17:35:22.287Z,43.63
2023-02-01T17:37:50.884Z,45.97
2023-02-01T17:40:18.165Z,39.58
2023-02-01T17:42:45.129Z,42.17
2023-02-01T17:45:22.865Z,40.83
2023-02-01T17:47:50.033Z,35.67
2023-02-01T17:50:17.212Z,29.05
2023-02-01T17:52:44.245Z,25.30
2023-02-01T17:55:23.574Z,27.73
2023-02-01T17:57:50.906Z,25.15
2023-02-01T18:00:19.335Z,30.42
2023-02-01T18:02:46.318Z,26.27
2023-02-01T18:05:27.256Z,30.33
2023-02-01T18:07:54.135Z,34.90
2023-02-01T18:10:21.146Z,32.33
2023-02-01T18:12:48.154Z,32.75
2023-02-01T18:15:24.397Z,36.15
2023-02-01T18:17:52.264Z,38.85
2023-02-01T18:20:24.889Z,43.13
2023-02-01T18:22:51.946Z,37.10
2023-02-01T18:25:23.257Z,36.80
2023-02-01T18:27:55.415Z,33.08
2023-02-01T18:30:24.993Z,40.33
2023-02-01T18:32:52.026Z,36.08
2023-02-01T18:35:24.940Z,42.78
2023-02-01T18:37:53.564Z,41.63
2023-02-01T18:40:32.974Z,50.28
2023-02-01T18:43:00.422Z,38.83
2023-02-01T18:45:36.659Z,44.40
2023-02-01T18:48:05.751Z,36.97
2023-02-01T18:50:36.052Z,33.97
2023-02-01T18:53:06.102Z,35.47
2023-02-01T18:55:33.854Z,34.50
2023-02-01T18:58:01.872Z,33.63
2023-02-01T19:00:29.859Z,37.30
2023-02-01T19:02:56.913Z,33.78
2023-02-01T19:05:24.252Z,38.45
2023-02-01T19:07:51.512Z,34.83
2023-02-01T19:10:22.385Z,39.20
2023-02-01T19:12:50.799Z,46.85
2023-02-01T19:15:18.897Z,40.55
2023-02-01T19:17:49.013Z,47.53
2023-02-01T19:20:20.852Z,45.65
2023-02-01T19:22:48.117Z,39.75
2023-02-01T19:25:21.510Z,43.55
2023-02-01T19:27:50.227Z,41.28
2023-02-01T19:30:19.227Z,37.17
2023-02-01T19:32:46.432Z,38.08
2023-02-01T19:35:16.932Z,44.63
2023-02-01T19:37:43.827Z,39.00
2023-02-01T19:40:13.965Z,41.38
2023-02-01T19:42:40.855Z,33.85
2023-02-01T19:45:08.784Z,37.95
2023-02-01T19:47:35.981Z,35.95
2023-02-01T19:50:07.029Z,36.58
2023-02-01T19:52:35.289Z,39.10
2023-02-01T19:55:03.873Z,45.10
2023-02-01T19:57:31.162Z,43.03
2023-02-01T19:59:57.970Z,47.35
2023-02-01T20:02:25.799Z,42.60
2023-02-01T20:04:52.717Z,40.38
2023-02-01T20:07:19.595Z,39.97
2023-02-01T20:09:46.542Z,38.42
2023-02-01T20:12:13.558Z,37.28
2023-02-01T20:14:40.632Z,35.75
2023-02-01T20:17:10.535Z,34.60
2023-02-01T20:19:37.545Z,33.88
2023-02-01T20:22:04.451Z,38.25
2023-02-01T20:24:31.267Z,42.17
2023-02-01T20:26:59.285Z,39.75
2023-02-01T20:29:26.307Z,40.58
2023-02-01T20:31:53.606Z,41.08
2023-02-01T20:34:20.973Z,34.42
2023-02-01T20:36:47.815Z,43.25
2023-02-01T20:39:14.730Z,37.03
2023-02-01T20:41:41.690Z,39.80
2023-02-01T20:44:08.563Z,35.72
2023-02-01T20:46:35.526Z,38.65
2023-02-01T20:49:02.480Z,42.35
2023-02-01T20:51:29.337Z,43.72
2023-02-01T20:53:56.125Z,46.67
2023-02-01T20:56:23.045Z,46.05
2023-02-01T20:58:49.874Z,39.00
2023-02-01T21:01:16.807Z,41.95
2023-02-01T21:03:44.114Z,38.58
2023-02-01T21:06:12.943Z,46.70
2023-02-01T21:08:41.511Z,35.17
2023-02-01T21:11:13.706Z,34.08
2023-02-01T21:13:44.223Z,30.60
2023-02-01T21:16:13.494Z,27.40
2023-02-01T21:18:40.938Z,29.45
2023-02-01T21:21:10.275Z,25.58
2023-02-01T21:23:44.952Z,31.10
2023-02-01T21:26:18.532Z,33.25
2023-02-01T21:28:45.872Z,31.20
2023-02-01T21:31:15.274Z,32.80
2023-02-01T21:33:42.262Z,29.55
2023-02-01T21:36:09.965Z,30.45
2023-02-01T21:38:36.956Z,33.90
2023-02-01T21:41:22.512Z,28.38
2023-02-01T21:43:49.389Z,29.02
2023-02-01T21:46:18.228Z,29.38
2023-02-01T21:49:04.169Z,26.88
2023-02-01T21:51:32.223Z,31.05
2023-02-01T21:53:59.026Z,33.80
2023-02-01T21:56:25.915Z,28.15
2023-02-01T21:58:52.806Z,28.88
2023-02-01T22:01:19.837Z,28.15
2023-02-01T22:03:46.774Z,23.95
2023-02-01T22:06:30.406Z,26.13
2023-02-01T22:08:57.884Z,22.70
2023-02-01T22:11:25.288Z,44.00
2023-02-01T22:13:52.635Z,26.52
2023-02-01T22:16:21.600Z,24.67
2023-02-01T22:18:52.638Z,25.90
2023-02-01T22:21:20.466Z,33.50
2023-02-01T22:23:59.166Z,27.75
2023-02-01T22:26:27.622Z,32.65
2023-02-01T22:28:54.637Z,28.52
2023-02-01T22:31:22.268Z,24.90
2023-02-01T22:33:50.610Z,25.17
2023-02-01T22:36:18.507Z,22.65
2023-02-01T22:38:46.992Z,29.58
2023-02-01T22:41:13.964Z,28.88
2023-02-01T22:43:40.968Z,22.70
2023-02-01T22:46:13.154Z,28.10
2023-02-01T22:48:41.877Z,25.58
2023-02-01T22:51:15.053Z,25.08
2023-02-01T22:53:42.006Z,22.05
2023-02-01T22:56:11.724Z,19.40
2023-02-01T22:58:39.095Z,17.40
2023-02-01T23:01:08.094Z,18.98
2023-02-01T23:03:36.518Z,17.33
2023-02-01T23:06:04.821Z,17.15
2023-02-01T23:08:35.347Z,17.45
2023-02-01T23:11:05.863Z,15.52
2023-02-01T23:13:33.795Z,14.82
2023-02-01T23:16:13.960Z,18.92
2023-02-01T23:18:41.385Z,14.15
2023-02-01T23:21:11.754Z,16.77
2023-02-01T23:23:38.682Z,13.75
2023-02-01T23:26:06.015Z,14.45
2023-02-01T23:28:33.494Z,15.85
2023-02-01T23:31:06.846Z,17.45
2023-02-01T23:33:34.207Z,17.67
2023-02-01T23:36:03.975Z,17.10
2023-02-01T23:38:31.021Z,22.02
2023-02-01T23:41:02.391Z,21.70
2023-02-01T23:43:48.064Z,17.52
2023-02-01T23:46:16.283Z,15.70
2023-02-01T23:48:44.605Z,19.08
2023-02-01T23:51:12.834Z,15.15
2023-02-01T23:53:40.159Z,16.33
2023-02-01T23:56:07.762Z,16.52
2023-02-01T23:58:34.851Z,17.50
